sensor_id;sensor_type;location;lat;lon;timestamp;P1;durP1;ratioP1;P2;durP2;ratioP2
49556;SDS011;35462;45.048;7.666;2022-09-09T00:34:14;6.53;;;3.80;;
49556;SDS011;35462;45.048;7.666;2022-09-09T00:49:24;4.47;;;3.53;;
49556;SDS011;35462;45.048;7.666;2022-09-09T01:04:33;6.07;;;3.78;;
49556;SDS011;35462;45.048;7.666;2022-09-09T01:19:45;8.30;;;4.63;;
49556;SDS011;35462;45.048;7.666;2022-09-09T01:50:01;6.97;;;4.75;;
49556;SDS011;35462;45.048;7.666;2022-09-09T02:20:20;8.43;;;5.07;;
49556;SDS011;35462;45.048;7.666;2022-09-09T02:35:31;5.40;;;4.13;;
49556;SDS011;35462;45.048;7.666;2022-09-09T02:50:45;7.00;;;4.28;;
49556;SDS011;35462;45.048;7.666;2022-09-09T03:05:52;8.30;;;4.45;;
49556;SDS011;35462;45.048;7.666;2022-09-09T03:20:56;6.85;;;3.65;;
49556;SDS011;35462;45.048;7.666;2022-09-09T03:36:02;6.07;;;4.25;;
49556;SDS011;35462;45.048;7.666;2022-09-09T03:51:07;8.52;;;3.60;;
49556;SDS011;35462;45.048;7.666;2022-09-09T04:06:12;4.65;;;3.97;;
49556;SDS011;35462;45.048;7.666;2022-09-09T04:21:19;7.47;;;4.97;;
49556;SDS011;35462;45.048;7.666;2022-09-09T04:36:24;8.70;;;3.95;;
49556;SDS011;35462;45.048;7.666;2022-09-09T04:51:33;8.40;;;5.10;;
49556;SDS011;35462;45.048;7.666;2022-09-09T05:06:37;6.05;;;4.88;;
49556;SDS011;35462;45.048;7.666;2022-09-09T05:21:42;6.20;;;4.80;;
49556;SDS011;35462;45.048;7.666;2022-09-09T05:36:46;6.13;;;4.03;;
49556;SDS011;35462;45.048;7.666;2022-09-09T05:51:52;6.97;;;4.35;;
49556;SDS011;35462;45.048;7.666;2022-09-09T06:06:59;4.65;;;3.78;;
49556;SDS011;35462;45.048;7.666;2022-09-09T06:22:05;7.20;;;4.30;;
49556;SDS011;35462;45.048;7.666;2022-09-09T06:52:22;9.95;;;5.75;;
49556;SDS011;35462;45.048;7.666;2022-09-09T07:07:27;5.90;;;4.17;;
49556;SDS011;35462;45.048;7.666;2022-09-09T07:22:33;8.40;;;4.87;;
49556;SDS011;35462;45.048;7.666;2022-09-09T07:37:37;9.63;;;4.67;;
49556;SDS011;35462;45.048;7.666;2022-09-09T07:52:42;10.10;;;5.88;;
49556;SDS011;35462;45.048;7.666;2022-09-09T08:07:46;12.30;;;7.10;;
49556;SDS011;35462;45.048;7.666;2022-09-09T08:22:50;7.72;;;5.57;;
49556;SDS011;35462;45.048;7.666;2022-09-09T08:37:54;7.78;;;5.00;;
49556;SDS011;35462;45.048;7.666;2022-09-09T08:53:01;8.57;;;4.72;;
49556;SDS011;35462;45.048;7.666;2022-09-09T09:23:21;7.70;;;4.40;;
49556;SDS011;35462;45.048;7.666;2022-09-09T09:38:29;5.72;;;3.40;;
49556;SDS011;35462;45.048;7.666;2022-09-09T09:53:37;4.72;;;2.85;;
49556;SDS011;35462;45.048;7.666;2022-09-09T10:08:44;4.38;;;2.40;;
49556;SDS011;35462;45.048;7.666;2022-09-09T10:39:03;5.35;;;2.38;;
49556;SDS011;35462;45.048;7.666;2022-09-09T11:09:17;5.10;;;2.28;;
49556;SDS011;35462;45.048;7.666;2022-09-09T11:24:27;2.92;;;2.03;;
49556;SDS011;35462;45.048;7.666;2022-09-09T11:54:47;4.03;;;2.00;;
49556;SDS011;35462;45.048;7.666;2022-09-09T12:09:56;2.15;;;1.50;;
49556;SDS011;35462;45.048;7.666;2022-09-09T12:55:23;3.97;;;1.52;;
49556;SDS011;35462;45.048;7.666;2022-09-09T13:10:32;2.95;;;1.33;;
49556;SDS011;35462;45.048;7.666;2022-09-09T13:25:42;3.45;;;1.27;;
49556;SDS011;35462;45.048;7.666;2022-09-09T13:40:58;2.30;;;1.53;;
49556;SDS011;35462;45.048;7.666;2022-09-09T13:56:07;2.15;;;0.70;;
49556;SDS011;35462;45.048;7.666;2022-09-09T14:11:12;0.63;;;0.50;;
49556;SDS011;35462;45.048;7.666;2022-09-09T14:26:17;1.63;;;0.93;;
49556;SDS011;35462;45.048;7.666;2022-09-09T14:56:26;3.03;;;1.70;;
49556;SDS011;35462;45.048;7.666;2022-09-09T15:11:33;2.75;;;0.88;;
49556;SDS011;35462;45.048;7.666;2022-09-09T15:26:42;2.80;;;1.38;;
49556;SDS011;35462;45.048;7.666;2022-09-09T15:41:46;2.85;;;0.95;;
49556;SDS011;35462;45.048;7.666;2022-09-09T15:56:52;2.92;;;1.40;;
49556;SDS011;35462;45.048;7.666;2022-09-09T16:12:00;4.63;;;1.10;;
49556;SDS011;35462;45.048;7.666;2022-09-09T16:27:05;3.15;;;1.40;;
49556;SDS011;35462;45.048;7.666;2022-09-09T16:42:10;2.87;;;1.83;;
49556;SDS011;35462;45.048;7.666;2022-09-09T16:57:14;2.55;;;1.48;;
49556;SDS011;35462;45.048;7.666;2022-09-09T17:12:17;6.07;;;1.80;;
49556;SDS011;35462;45.048;7.666;2022-09-09T17:27:21;3.35;;;1.50;;
49556;SDS011;35462;45.048;7.666;2022-09-09T17:42:25;2.72;;;1.88;;
49556;SDS011;35462;45.048;7.666;2022-09-09T17:57:29;5.60;;;1.98;;
49556;SDS011;35462;45.048;7.666;2022-09-09T18:12:33;3.53;;;1.92;;
49556;SDS011;35462;45.048;7.666;2022-09-09T18:27:37;5.38;;;1.83;;
49556;SDS011;35462;45.048;7.666;2022-09-09T18:42:41;7.47;;;2.95;;
49556;SDS011;35462;45.048;7.666;2022-09-09T18:57:45;3.83;;;2.42;;
49556;SDS011;35462;45.048;7.666;2022-09-09T19:12:50;4.53;;;2.13;;
49556;SDS011;35462;45.048;7.666;2022-09-09T19:27:54;3.38;;;1.63;;
49556;SDS011;35462;45.048;7.666;2022-09-09T19:42:58;12.45;;;8.57;;
49556;SDS011;35462;45.048;7.666;2022-09-09T19:58:02;8.23;;;3.17;;
49556;SDS011;35462;45.048;7.666;2022-09-09T20:13:06;8.45;;;3.08;;
49556;SDS011;35462;45.048;7.666;2022-09-09T20:28:11;6.80;;;2.58;;
49556;SDS011;35462;45.048;7.666;2022-09-09T20:43:15;5.57;;;3.67;;
49556;SDS011;35462;45.048;7.666;2022-09-09T20:58:19;5.53;;;2.45;;
49556;SDS011;35462;45.048;7.666;2022-09-09T21:13:24;5.97;;;2.75;;
49556;SDS011;35462;45.048;7.666;2022-09-09T21:28:29;6.55;;;3.00;;
49556;SDS011;35462;45.048;7.666;2022-09-09T21:43:33;5.20;;;3.50;;
49556;SDS011;35462;45.048;7.666;2022-09-09T21:58:38;9.20;;;3.80;;
49556;SDS011;35462;45.048;7.666;2022-09-09T22:13:43;3.87;;;2.20;;
49556;SDS011;35462;45.048;7.666;2022-09-09T22:28:48;0.90;;;0.50;;
49556;SDS011;35462;45.048;7.666;2022-09-09T22:43:52;0.95;;;0.57;;
49556;SDS011;35462;45.048;7.666;2022-09-09T22:58:58;1.02;;;0.60;;
49556;SDS011;35462;45.048;7.666;2022-09-09T23:14:03;2.03;;;0.63;;
49556;SDS011;35462;45.048;7.666;2022-09-09T23:29:10;1.33;;;0.70;;
49556;SDS011;35462;45.048;7.666;2022-09-09T23:44:17;2.75;;;0.82;;
49556;SDS011;35462;45.048;7.666;2022-09-09T23:59:21;5.03;;;1.75;;
